Terminal Aerodrome Forecast
Issued by NWS Sterling, VA

Current Version | Previous Version | Text Only | Print | Product List | Glossary Off
Versions: 1 2 3 4 5 6 7 8 9 10 11 12 13 14 15 16 17 18 19 20 21 22 23

268
FTUS41 KLWX 062059 AAA
TAFDCA
TAF AMD
KDCA 062059Z 0621/0718 17009KT P6SM FEW150 BKN200
     FM070500 36005KT P6SM SCT200
     FM071400 01008KT P6SM SCT200=

USA.gov is the U.S. government's official web portal to all federal, state and local government web resources and services.